Terminal Aerodrome Forecast
Issued by NWS

Home | Current Version | Previous Version | Text Only | Print | Product List | Glossary On
Versions: 1 2 3 4 5 6 7 8 9 10 11 12 13 14 15 16
000
FTUS46 KPDT 261800 AAA
TAFYKM
TAF AMD
KYKM 261800Z 2618/2718 VRB04KT 3SM -SNRA BR SCT006 BKN015 OVC025
      TEMPO 2618/2622 1SM -SN BR BKN006
     FM270200 28008KT P6SM OVC050=

USA.gov is the U.S. government's official web portal to all federal, state and local government web resources and services.